UAL5488 KDFW-KLAX
Flight info
| Callsign | UAL5488 |
|---|---|
| Flight time | N/A |
| Altitude | 38000 |
| Route | KATZZ2 BRHMA CNX J74 NABOB ESTWD HLYWD1 |
| Aircraft | B77W/H-SDE1E2E3FGHIJ2J3J4J5M1RWXY/LB1D1 |
Departure
| Time | N/A |
|---|---|
| Airport | Dallas Fort Worth International Airport (KDFW) |
Arrival
| Time | 2026-04-21 19:29 |
|---|---|
| Airport | Los Angeles International Airport (KLAX) |
| Time | Latitude | Longitude | Altitude | Speed | Heading |
|---|---|---|---|---|---|
| 2026-04-21 18:57 | 34.14773 | -115.58731 | 37909 ft | 422 kts | 277° |
| 2026-04-21 18:57 | 34.15315 | -115.62133 | 37907 ft | 405 kts | 277° |
| 2026-04-21 18:58 | 34.16293 | -115.68750 | 37907 ft | 401 kts | 271° |
| 2026-04-21 18:58 | 34.15830 | -115.75459 | 37918 ft | 407 kts | 261° |
| 2026-04-21 18:59 | 34.15115 | -115.82210 | 37915 ft | 405 kts | 261° |
| 2026-04-21 18:59 | 34.14785 | -115.85538 | 37751 ft | 398 kts | 262° |
| 2026-04-21 18:59 | 34.14459 | -115.88886 | 37393 ft | 392 kts | 262° |
| 2026-04-21 18:59 | 34.14148 | -115.92095 | 36954 ft | 387 kts | 261° |
| 2026-04-21 19:00 | 34.13836 | -115.95305 | 36475 ft | 383 kts | 261° |
| 2026-04-21 19:00 | 34.13525 | -115.98487 | 36022 ft | 380 kts | 261° |
| 2026-04-21 19:00 | 34.13216 | -116.01635 | 35555 ft | 377 kts | 261° |
| 2026-04-21 19:00 | 34.12910 | -116.04763 | 35074 ft | 374 kts | 261° |
| 2026-04-21 19:01 | 34.12605 | -116.07868 | 34596 ft | 371 kts | 261° |
| 2026-04-21 19:01 | 34.12303 | -116.10940 | 34140 ft | 368 kts | 261° |
| 2026-04-21 19:01 | 34.12000 | -116.14009 | 33627 ft | 366 kts | 260° |
| 2026-04-21 19:01 | 34.11701 | -116.17039 | 33125 ft | 363 kts | 260° |
| 2026-04-21 19:02 | 34.11403 | -116.20051 | 32651 ft | 360 kts | 260° |
| 2026-04-21 19:02 | 34.11114 | -116.22973 | 32206 ft | 357 kts | 259° |
| 2026-04-21 19:02 | 34.10813 | -116.25996 | 31758 ft | 354 kts | 259° |
| 2026-04-21 19:02 | 34.10518 | -116.28938 | 31301 ft | 351 kts | 259° |
| 2026-04-21 19:03 | 34.10221 | -116.31857 | 30870 ft | 349 kts | 258° |
| 2026-04-21 19:03 | 34.09913 | -116.34762 | 30427 ft | 346 kts | 258° |
| 2026-04-21 19:03 | 34.09604 | -116.37635 | 29998 ft | 344 kts | 258° |
| 2026-04-21 19:03 | 34.09300 | -116.40457 | 29484 ft | 343 kts | 258° |
| 2026-04-21 19:04 | 34.08994 | -116.43297 | 29025 ft | 341 kts | 257° |
| 2026-04-21 19:04 | 34.08689 | -116.46126 | 28581 ft | 339 kts | 257° |
| 2026-04-21 19:04 | 34.08386 | -116.48935 | 28133 ft | 337 kts | 257° |
| 2026-04-21 19:04 | 34.08085 | -116.51727 | 27696 ft | 335 kts | 257° |
| 2026-04-21 19:05 | 34.07785 | -116.54512 | 27266 ft | 333 kts | 257° |
| 2026-04-21 19:05 | 34.07485 | -116.57276 | 26840 ft | 332 kts | 257° |
| 2026-04-21 19:05 | 34.07194 | -116.60027 | 26434 ft | 331 kts | 258° |
| 2026-04-21 19:05 | 34.06934 | -116.62781 | 25999 ft | 330 kts | 258° |
| 2026-04-21 19:06 | 34.06683 | -116.65531 | 25585 ft | 330 kts | 258° |
| 2026-04-21 19:06 | 34.06433 | -116.68274 | 25169 ft | 329 kts | 258° |
| 2026-04-21 19:06 | 34.06182 | -116.71024 | 24746 ft | 329 kts | 258° |
| 2026-04-21 19:06 | 34.05929 | -116.73768 | 24328 ft | 330 kts | 258° |
| 2026-04-21 19:07 | 34.05673 | -116.76517 | 23937 ft | 330 kts | 258° |
| 2026-04-21 19:07 | 34.05414 | -116.79273 | 23469 ft | 331 kts | 258° |
| 2026-04-21 19:07 | 34.05159 | -116.82005 | 22998 ft | 332 kts | 258° |
| 2026-04-21 19:07 | 34.04898 | -116.84772 | 22500 ft | 333 kts | 258° |
| 2026-04-21 19:08 | 34.04636 | -116.87544 | 22060 ft | 331 kts | 258° |
| 2026-04-21 19:08 | 34.04357 | -116.90298 | 21614 ft | 330 kts | 257° |
| 2026-04-21 19:08 | 34.04003 | -116.93033 | 21190 ft | 330 kts | 256° |
| 2026-04-21 19:08 | 34.03633 | -116.95757 | 20774 ft | 329 kts | 256° |
| 2026-04-21 19:09 | 34.03280 | -116.98425 | 20343 ft | 312 kts | 256° |
| 2026-04-21 19:09 | 34.03003 | -117.00570 | 19982 ft | 295 kts | 256° |
| 2026-04-21 19:09 | 34.02696 | -117.02951 | 19623 ft | 278 kts | 255° |
| 2026-04-21 19:09 | 34.02408 | -117.05274 | 19302 ft | 283 kts | 256° |
| 2026-04-21 19:10 | 34.02123 | -117.07636 | 18954 ft | 296 kts | 256° |
| 2026-04-21 19:10 | 34.01824 | -117.10148 | 18551 ft | 307 kts | 256° |
| 2026-04-21 19:10 | 34.01523 | -117.12706 | 18112 ft | 309 kts | 256° |
| 2026-04-21 19:10 | 34.01221 | -117.15275 | 17684 ft | 308 kts | 256° |
| 2026-04-21 19:11 | 34.00921 | -117.17824 | 17270 ft | 307 kts | 257° |
| 2026-04-21 19:11 | 34.00651 | -117.20094 | 16907 ft | 305 kts | 256° |
| 2026-04-21 19:11 | 34.00350 | -117.22614 | 16513 ft | 303 kts | 256° |
| 2026-04-21 19:11 | 34.00050 | -117.25120 | 16108 ft | 301 kts | 256° |
| 2026-04-21 19:12 | 33.99850 | -117.26794 | 15833 ft | 298 kts | 256° |
| 2026-04-21 19:12 | 33.99461 | -117.30052 | 15370 ft | 295 kts | 256° |
| 2026-04-21 19:12 | 33.99168 | -117.32495 | 14995 ft | 295 kts | 256° |
| 2026-04-21 19:12 | 33.98880 | -117.34941 | 14607 ft | 295 kts | 256° |
| 2026-04-21 19:13 | 33.98594 | -117.37379 | 14236 ft | 293 kts | 256° |
| 2026-04-21 19:13 | 33.98309 | -117.39807 | 13863 ft | 292 kts | 256° |
| 2026-04-21 19:13 | 33.98025 | -117.42226 | 13444 ft | 291 kts | 256° |
| 2026-04-21 19:13 | 33.97743 | -117.44609 | 13045 ft | 289 kts | 256° |
| 2026-04-21 19:14 | 33.97461 | -117.46997 | 12676 ft | 287 kts | 256° |
| 2026-04-21 19:14 | 33.97210 | -117.49342 | 12308 ft | 281 kts | 260° |
| 2026-04-21 19:14 | 33.97167 | -117.51693 | 11958 ft | 281 kts | 264° |
| 2026-04-21 19:14 | 33.97218 | -117.54051 | 11610 ft | 280 kts | 265° |
| 2026-04-21 19:15 | 33.97281 | -117.56371 | 11270 ft | 279 kts | 266° |
| 2026-04-21 19:15 | 33.97341 | -117.58734 | 10917 ft | 278 kts | 266° |
| 2026-04-21 19:15 | 33.97395 | -117.61105 | 10570 ft | 269 kts | 266° |
| 2026-04-21 19:15 | 33.97442 | -117.63204 | 10202 ft | 252 kts | 266° |
| 2026-04-21 19:16 | 33.97483 | -117.65226 | 9999 ft | 235 kts | 265° |
| 2026-04-21 19:16 | 33.97515 | -117.67200 | 9699 ft | 237 kts | 266° |
| 2026-04-21 19:16 | 33.97544 | -117.69181 | 9496 ft | 237 kts | 266° |
| 2026-04-21 19:16 | 33.97572 | -117.71193 | 9130 ft | 242 kts | 266° |
| 2026-04-21 19:17 | 33.97628 | -117.75349 | 8522 ft | 253 kts | 267° |
| 2026-04-21 19:17 | 33.97656 | -117.77460 | 8207 ft | 251 kts | 267° |
| 2026-04-21 19:17 | 33.97686 | -117.79560 | 7925 ft | 250 kts | 268° |
| 2026-04-21 19:18 | 33.97715 | -117.81606 | 7636 ft | 249 kts | 268° |
| 2026-04-21 19:18 | 33.97743 | -117.83731 | 7318 ft | 248 kts | 268° |
| 2026-04-21 19:18 | 33.97770 | -117.85782 | 7026 ft | 247 kts | 268° |
| 2026-04-21 19:18 | 33.97797 | -117.87853 | 6716 ft | 247 kts | 268° |
| 2026-04-21 19:19 | 33.97823 | -117.89918 | 6407 ft | 246 kts | 268° |
| 2026-04-21 19:19 | 33.97848 | -117.91972 | 6108 ft | 245 kts | 269° |
| 2026-04-21 19:19 | 33.97873 | -117.94032 | 5775 ft | 245 kts | 268° |
| 2026-04-21 19:19 | 33.97900 | -117.96074 | 5510 ft | 243 kts | 268° |
| 2026-04-21 19:20 | 33.97924 | -117.98111 | 5206 ft | 244 kts | 268° |
| 2026-04-21 19:20 | 33.97939 | -117.99465 | 5014 ft | 244 kts | 268° |
| 2026-04-21 19:20 | 33.97954 | -118.00826 | 4831 ft | 246 kts | 269° |
| 2026-04-21 19:20 | 33.97978 | -118.02876 | 4660 ft | 241 kts | 269° |
| 2026-04-21 19:21 | 33.98003 | -118.04740 | 4516 ft | 218 kts | 268° |
| 2026-04-21 19:21 | 33.98015 | -118.05696 | 4456 ft | 206 kts | 269° |
| 2026-04-21 19:21 | 33.98033 | -118.07386 | 4381 ft | 199 kts | 268° |
| 2026-04-21 19:21 | 33.98051 | -118.09077 | 4341 ft | 205 kts | 268° |
| 2026-04-21 19:22 | 33.98068 | -118.10844 | 4085 ft | 214 kts | 268° |
| 2026-04-21 19:22 | 33.98042 | -118.12626 | 3861 ft | 211 kts | 262° |
| 2026-04-21 19:22 | 33.97873 | -118.14360 | 3681 ft | 206 kts | 259° |
| 2026-04-21 19:22 | 33.97683 | -118.16046 | 3497 ft | 204 kts | 259° |
| 2026-04-21 19:23 | 33.97504 | -118.17732 | 3292 ft | 200 kts | 260° |
| 2026-04-21 19:23 | 33.97337 | -118.19353 | 3086 ft | 188 kts | 260° |
| 2026-04-21 19:23 | 33.97180 | -118.20884 | 2981 ft | 183 kts | 260° |
| 2026-04-21 19:23 | 33.97027 | -118.22383 | 2783 ft | 177 kts | 259° |
| 2026-04-21 19:24 | 33.96880 | -118.23828 | 2619 ft | 166 kts | 259° |
| 2026-04-21 19:24 | 33.96745 | -118.25165 | 2582 ft | 154 kts | 258° |
| 2026-04-21 19:24 | 33.96619 | -118.26401 | 2415 ft | 144 kts | 257° |
| 2026-04-21 19:24 | 33.96499 | -118.27576 | 2248 ft | 142 kts | 258° |
| 2026-04-21 19:25 | 33.96377 | -118.28755 | 2061 ft | 143 kts | 258° |
| 2026-04-21 19:25 | 33.96254 | -118.29956 | 1860 ft | 145 kts | 258° |
| 2026-04-21 19:25 | 33.96133 | -118.31146 | 1665 ft | 142 kts | 258° |
| 2026-04-21 19:25 | 33.96012 | -118.32339 | 1476 ft | 144 kts | 258° |
| 2026-04-21 19:26 | 33.95891 | -118.33518 | 1263 ft | 142 kts | 258° |
| 2026-04-21 19:26 | 33.95832 | -118.34097 | 1179 ft | 143 kts | 259° |
| 2026-04-21 19:26 | 33.95741 | -118.34996 | 1044 ft | 140 kts | 259° |
| 2026-04-21 19:26 | 33.95618 | -118.36200 | 835 ft | 142 kts | 259° |
| 2026-04-21 19:27 | 33.95497 | -118.37372 | 613 ft | 141 kts | 261° |
| 2026-04-21 19:27 | 33.95370 | -118.38540 | 432 ft | 142 kts | 262° |
| 2026-04-21 19:27 | 33.95247 | -118.39725 | 221 ft | 141 kts | 263° |
| 2026-04-21 19:27 | 33.95170 | -118.40492 | 139 ft | 134 kts | 263° |
| 2026-04-21 19:28 | 33.95074 | -118.41479 | 113 ft | 107 kts | 263° |
| 2026-04-21 19:28 | 33.95028 | -118.41987 | 112 ft | 78 kts | 263° |
| 2026-04-21 19:28 | 33.94965 | -118.42470 | 109 ft | 52 kts | 250° |
| 2026-04-21 19:29 | 33.94861 | -118.42668 | 109 ft | 0 kts | 227° |
| 2026-04-21 19:29 | 33.94858 | -118.42671 | 109 ft | 1 kts | 227° |
| 2026-04-21 19:29 | 33.94850 | -118.42682 | 109 ft | 2 kts | 226° |
| 2026-04-21 19:29 | 33.94836 | -118.42699 | 110 ft | 5 kts | 225° |
| 2026-04-21 19:30 | 33.94787 | -118.42742 | 111 ft | 19 kts | 206° |
| 2026-04-21 19:30 | 33.94662 | -118.42767 | 108 ft | 11 kts | 158° |
| 2026-04-21 19:30 | 33.94638 | -118.42673 | 104 ft | 13 kts | 87° |
| 2026-04-21 19:30 | 33.94649 | -118.42556 | 104 ft | 14 kts | 84° |
| 2026-04-21 19:31 | 33.94660 | -118.42437 | 107 ft | 15 kts | 83° |
| 2026-04-21 19:31 | 33.94673 | -118.42314 | 103 ft | 15 kts | 82° |
| 2026-04-21 19:31 | 33.94687 | -118.42185 | 106 ft | 16 kts | 82° |
| 2026-04-21 19:31 | 33.94703 | -118.42051 | 105 ft | 16 kts | 83° |
| 2026-04-21 19:32 | 33.94690 | -118.41933 | 103 ft | 14 kts | 141° |
| 2026-04-21 19:32 | 33.94587 | -118.41909 | 102 ft | 16 kts | 172° |
| 2026-04-21 19:32 | 33.94476 | -118.41895 | 100 ft | 17 kts | 177° |
| 2026-04-21 19:32 | 33.94357 | -118.41884 | 100 ft | 17 kts | 174° |
| 2026-04-21 19:33 | 33.94235 | -118.41870 | 100 ft | 18 kts | 174° |
| 2026-04-21 19:33 | 33.94117 | -118.41853 | 101 ft | 18 kts | 172° |
| 2026-04-21 19:33 | 33.93990 | -118.41832 | 101 ft | 18 kts | 172° |
| 2026-04-21 19:33 | 33.93863 | -118.41810 | 102 ft | 18 kts | 173° |
| 2026-04-21 19:34 | 33.93788 | -118.41741 | 104 ft | 15 kts | 95° |
| 2026-04-21 19:34 | 33.93797 | -118.41616 | 106 ft | 15 kts | 84° |
| 2026-04-21 19:34 | 33.93807 | -118.41490 | 103 ft | 15 kts | 84° |
| 2026-04-21 19:34 | 33.93818 | -118.41371 | 104 ft | 15 kts | 83° |
| 2026-04-21 19:35 | 33.93831 | -118.41245 | 103 ft | 15 kts | 83° |
| 2026-04-21 19:35 | 33.93856 | -118.40995 | 104 ft | 15 kts | 81° |
| 2026-04-21 19:35 | 33.93871 | -118.40871 | 103 ft | 15 kts | 82° |
| 2026-04-21 19:36 | 33.93886 | -118.40747 | 103 ft | 15 kts | 82° |
| 2026-04-21 19:36 | 33.93900 | -118.40626 | 105 ft | 15 kts | 82° |
| 2026-04-21 19:36 | 33.93912 | -118.40508 | 104 ft | 15 kts | 84° |
| 2026-04-21 19:36 | 33.93923 | -118.40383 | 103 ft | 15 kts | 84° |
| 2026-04-21 19:37 | 33.93933 | -118.40259 | 103 ft | 15 kts | 84° |
| 2026-04-21 19:37 | 33.93944 | -118.40135 | 106 ft | 12 kts | 81° |
| 2026-04-21 19:37 | 33.93953 | -118.40105 | 104 ft | 12 kts | 63° |
| 2026-04-21 19:38 | 33.93979 | -118.40060 | 105 ft | 8 kts | 51° |
| 2026-04-21 19:38 | 33.94017 | -118.40008 | 103 ft | 8 kts | 49° |
| 2026-04-21 19:38 | 33.94029 | -118.39991 | 101 ft | 1 kts | 49° |
| 2026-04-21 19:38 | 33.94030 | -118.39989 | 101 ft | 0 kts | 49° |
| 2026-04-21 19:39 | 33.94032 | -118.39987 | 101 ft | 0 kts | 49° |